createdAt,value
2022-11-28T00:01:29.976Z,1.85
2022-11-28T00:03:57.015Z,1.92
2022-11-28T00:06:23.821Z,2.47
2022-11-28T00:08:50.807Z,1.63
2022-11-28T00:11:18.245Z,3.20
2022-11-28T00:13:45.342Z,2.42
2022-11-28T00:16:24.060Z,2.00
2022-11-28T00:18:53.163Z,1.60
2022-11-28T00:21:20.595Z,1.42
2022-11-28T00:23:48.594Z,2.88
2022-11-28T00:26:30.295Z,1.75
2022-11-28T00:28:57.591Z,3.03
2022-11-28T00:31:29.272Z,2.22
2022-11-28T00:33:56.695Z,1.40
2022-11-28T00:36:23.943Z,1.73
2022-11-28T00:38:51.342Z,2.30
2022-11-28T00:41:24.300Z,2.83
2022-11-28T00:43:52.246Z,1.05
2022-11-28T00:46:20.697Z,2.05
2022-11-28T00:48:47.721Z,2.50
2022-11-28T00:51:16.064Z,2.00
2022-11-28T00:53:44.400Z,2.67
2022-11-28T00:56:14.758Z,2.17
2022-11-28T00:58:42.518Z,2.42
2022-11-28T01:01:20.707Z,2.55
2022-11-28T01:03:49.571Z,2.05
2022-11-28T01:06:34.420Z,2.00
2022-11-28T01:09:05.530Z,1.88
2022-11-28T01:11:32.267Z,2.05
2022-11-28T01:14:01.121Z,2.08
2022-11-28T01:16:28.707Z,1.83
2022-11-28T01:18:56.306Z,3.08
2022-11-28T01:21:23.433Z,1.67
2022-11-28T01:23:50.568Z,2.13
2022-11-28T01:26:20.640Z,2.15
2022-11-28T01:28:47.930Z,1.52
2022-11-28T01:31:19.055Z,2.63
2022-11-28T01:33:45.669Z,1.15
2022-11-28T01:36:13.529Z,1.30
2022-11-28T01:38:40.255Z,2.03
2022-11-28T01:41:08.156Z,0.88
2022-11-28T01:43:35.954Z,1.65
2022-11-28T01:46:04.331Z,1.60
2022-11-28T01:48:38.648Z,1.52
2022-11-28T01:51:09.783Z,2.20
2022-11-28T01:53:41.032Z,2.30
2022-11-28T01:56:14.719Z,2.00
2022-11-28T01:58:45.640Z,2.65
2022-11-28T02:01:12.789Z,1.17
2022-11-28T02:03:45.178Z,1.80
2022-11-28T02:06:15.068Z,2.03
2022-11-28T02:08:42.061Z,1.33
2022-11-28T02:11:33.895Z,0.88
2022-11-28T02:14:21.183Z,1.45
2022-11-28T02:16:57.064Z,1.35
2022-11-28T02:19:51.684Z,1.40
2022-11-28T02:22:32.236Z,1.35
2022-11-28T02:25:28.424Z,1.25
2022-11-28T02:28:35.863Z,0.85
2022-11-28T02:31:24.441Z,1.67
2022-11-28T02:33:59.821Z,2.00
2022-11-28T02:36:50.126Z,0.73
2022-11-28T02:39:23.413Z,0.80
2022-11-28T02:42:11.213Z,1.33
2022-11-28T02:45:04.362Z,2.35
2022-11-28T02:47:34.225Z,1.42
2022-11-28T02:50:09.821Z,1.50
2022-11-28T02:52:43.310Z,1.10
2022-11-28T02:55:10.866Z,2.38
2022-11-28T02:57:39.690Z,1.90
2022-11-28T03:00:36.137Z,1.35
2022-11-28T03:03:22.272Z,2.28
2022-11-28T03:05:59.212Z,1.10
2022-11-28T03:08:47.851Z,1.25
2022-11-28T03:11:34.103Z,1.42
2022-11-28T03:14:16.152Z,1.73
2022-11-28T03:16:55.042Z,1.55
2022-11-28T03:19:42.353Z,1.52
2022-11-28T03:22:23.306Z,1.63
2022-11-28T03:25:09.758Z,1.60
2022-11-28T03:27:48.187Z,2.72
2022-11-28T03:30:32.434Z,1.25
2022-11-28T03:33:01.793Z,1.83
2022-11-28T03:35:36.393Z,1.33
2022-11-28T03:38:16.103Z,1.55
2022-11-28T03:40:47.828Z,1.35
2022-11-28T03:43:25.055Z,1.55
2022-11-28T03:45:56.022Z,1.38
2022-11-28T03:48:30.889Z,1.23
2022-11-28T03:51:03.792Z,1.23
2022-11-28T03:54:03.699Z,1.38
2022-11-28T03:56:40.660Z,1.13
2022-11-28T03:59:16.611Z,1.23
2022-11-28T04:01:51.631Z,2.03
2022-11-28T04:04:29.437Z,1.88
2022-11-28T04:07:08.565Z,2.17
2022-11-28T04:09:49.567Z,1.30
2022-11-28T04:12:23.677Z,1.52
2022-11-28T04:15:03.877Z,2.25
2022-11-28T04:17:35.957Z,1.10
2022-11-28T04:20:29.160Z,2.55
2022-11-28T04:23:00.925Z,1.10
2022-11-28T04:25:29.791Z,1.98
2022-11-28T04:28:04.801Z,1.33
2022-11-28T04:30:32.160Z,1.02
2022-11-28T04:33:02.657Z,1.65
2022-11-28T04:35:34.021Z,0.68
2022-11-28T04:38:02.605Z,1.35
2022-11-28T04:40:33.277Z,0.95
2022-11-28T04:43:04.504Z,1.17
2022-11-28T04:45:36.389Z,1.50
2022-11-28T04:48:03.380Z,1.10
2022-11-28T04:50:44.322Z,1.02
2022-11-28T04:53:22.749Z,0.90
2022-11-28T04:55:56.871Z,0.82
2022-11-28T04:58:34.877Z,1.55
2022-11-28T05:01:04.060Z,1.17
2022-11-28T05:03:31.599Z,1.45
2022-11-28T05:05:58.199Z,1.05
2022-11-28T05:08:25.356Z,1.60
2022-11-28T05:10:52.197Z,2.67
2022-11-28T05:13:18.850Z,1.60
2022-11-28T05:15:45.676Z,1.58
2022-11-28T05:18:12.427Z,0.88
2022-11-28T05:20:40.167Z,1.70
2022-11-28T05:23:08.705Z,1.08
2022-11-28T05:25:38.622Z,1.55
2022-11-28T05:28:05.266Z,1.00
2022-11-28T05:30:32.128Z,1.33
2022-11-28T05:33:00.600Z,2.25
2022-11-28T05:35:27.513Z,1.50
2022-11-28T05:37:54.406Z,0.90
2022-11-28T05:40:21.155Z,1.63
2022-11-28T05:42:47.906Z,1.30
2022-11-28T05:45:15.744Z,1.15
2022-11-28T05:47:42.307Z,1.92
2022-11-28T05:50:09.305Z,2.03
2022-11-28T05:52:35.962Z,0.65
2022-11-28T05:55:02.722Z,1.83
2022-11-28T05:57:31.954Z,1.33
2022-11-28T05:59:58.814Z,2.25
2022-11-28T06:02:26.002Z,0.90
2022-11-28T06:04:52.768Z,2.13
2022-11-28T06:07:20.155Z,1.65
2022-11-28T06:09:47.059Z,1.55
2022-11-28T06:12:13.930Z,1.63
2022-11-28T06:14:40.609Z,1.17
2022-11-28T06:17:07.346Z,1.17
2022-11-28T06:19:34.035Z,1.05
2022-11-28T06:22:00.653Z,1.85
2022-11-28T06:24:27.682Z,1.30
2022-11-28T06:26:55.337Z,1.88
2022-11-28T06:29:22.273Z,1.63
2022-11-28T06:31:49.138Z,1.52
2022-11-28T06:34:37.830Z,2.38
2022-11-28T06:37:04.644Z,2.47
2022-11-28T06:39:32.091Z,0.80
2022-11-28T06:41:58.872Z,2.83
2022-11-28T06:44:25.911Z,1.08
2022-11-28T06:46:54.593Z,1.95
2022-11-28T06:49:21.666Z,1.30
2022-11-28T06:51:48.264Z,2.15
2022-11-28T06:54:15.016Z,1.85
2022-11-28T06:56:41.903Z,1.77
2022-11-28T06:59:11.990Z,1.58
2022-11-28T07:01:38.686Z,2.35
2022-11-28T07:04:05.566Z,1.58
2022-11-28T07:06:32.144Z,1.17
2022-11-28T07:09:00.620Z,1.88
2022-11-28T07:11:30.188Z,1.15
2022-11-28T07:13:58.234Z,1.67
2022-11-28T07:16:27.730Z,1.35
2022-11-28T07:18:55.794Z,1.60
2022-11-28T07:21:24.206Z,2.15
2022-11-28T07:23:51.400Z,0.88
2022-11-28T07:26:20.018Z,2.22
2022-11-28T07:28:48.243Z,1.77
2022-11-28T07:31:26.634Z,2.03
2022-11-28T07:33:53.507Z,1.42
2022-11-28T07:36:22.870Z,2.83
2022-11-28T07:38:52.208Z,2.05
2022-11-28T07:41:23.682Z,2.85
2022-11-28T07:43:59.362Z,2.30
2022-11-28T07:46:27.359Z,1.85
2022-11-28T07:48:54.467Z,1.63
2022-11-28T07:51:24.750Z,1.60
2022-11-28T07:53:51.637Z,1.67
2022-11-28T07:56:21.220Z,2.88
2022-11-28T07:58:48.795Z,2.28
2022-11-28T08:01:30.030Z,2.13
2022-11-28T08:03:57.524Z,1.92
2022-11-28T08:06:27.339Z,1.70
2022-11-28T08:08:55.505Z,1.98
2022-11-28T08:11:25.267Z,2.35
2022-11-28T08:13:55.059Z,2.55
2022-11-28T08:16:27.561Z,2.28
2022-11-28T08:18:55.308Z,2.65
2022-11-28T08:21:28.396Z,1.67
2022-11-28T08:23:58.013Z,1.60
2022-11-28T08:26:29.241Z,1.83
2022-11-28T08:28:58.341Z,1.80
2022-11-28T08:31:28.063Z,1.92
2022-11-28T08:33:57.042Z,2.00
2022-11-28T08:36:24.027Z,1.85
2022-11-28T08:39:09.488Z,2.10
2022-11-28T08:41:38.690Z,1.58
2022-11-28T08:44:05.313Z,2.22
2022-11-28T08:46:32.684Z,2.22
2022-11-28T08:49:04.157Z,1.50
2022-11-28T08:51:31.883Z,2.92
2022-11-28T08:53:59.713Z,2.47
2022-11-28T08:56:26.883Z,2.15
2022-11-28T08:58:53.672Z,2.45
2022-11-28T09:01:22.866Z,2.63
2022-11-28T09:03:50.172Z,2.53
2022-11-28T09:06:18.114Z,2.72
2022-11-28T09:08:45.332Z,2.45
2022-11-28T09:11:14.641Z,1.65
2022-11-28T09:13:42.250Z,2.55
2022-11-28T09:16:09.489Z,3.45
2022-11-28T09:18:37.239Z,2.30
2022-11-28T09:21:09.300Z,2.55
2022-11-28T09:23:41.334Z,2.70
2022-11-28T09:26:15.121Z,2.28
2022-11-28T09:28:42.196Z,3.00
2022-11-28T09:31:11.674Z,2.60
2022-11-28T09:33:38.429Z,3.03
2022-11-28T09:36:08.906Z,2.30
2022-11-28T09:38:36.535Z,2.25
2022-11-28T09:41:04.370Z,2.40
2022-11-28T09:43:41.978Z,2.47
2022-11-28T09:46:16.036Z,2.38
2022-11-28T09:48:51.254Z,3.55
2022-11-28T09:51:44.392Z,2.35
2022-11-28T09:54:16.568Z,2.47
2022-11-28T09:56:48.035Z,3.17
2022-11-28T09:59:25.595Z,3.15
2022-11-28T10:02:15.767Z,2.15
2022-11-28T10:04:52.346Z,2.63
2022-11-28T10:07:53.711Z,2.67
2022-11-28T10:10:55.301Z,2.45
2022-11-28T10:14:06.522Z,4.25
2022-11-28T10:17:07.157Z,2.47
2022-11-28T10:19:55.481Z,3.22
2022-11-28T10:22:50.483Z,2.30
2022-11-28T10:25:22.643Z,2.30
2022-11-28T10:27:50.285Z,2.60
2022-11-28T10:30:24.913Z,1.85
2022-11-28T10:33:23.857Z,1.90
2022-11-28T10:36:01.544Z,3.60
2022-11-28T10:38:31.826Z,2.10
2022-11-28T10:41:08.071Z,2.10
2022-11-28T10:44:00.612Z,2.35
2022-11-28T10:46:44.828Z,2.17
2022-11-28T10:49:25.634Z,1.88
2022-11-28T10:51:58.807Z,2.15
2022-11-28T10:54:49.906Z,2.45
2022-11-28T10:57:41.449Z,1.83
2022-11-28T11:00:18.390Z,3.20
2022-11-28T11:02:54.799Z,2.70
2022-11-28T11:05:27.953Z,1.55
2022-11-28T11:08:18.038Z,2.58
2022-11-28T11:10:52.101Z,2.47
2022-11-28T11:13:27.835Z,2.35
2022-11-28T11:16:02.825Z,4.50
2022-11-28T11:18:49.503Z,2.60
2022-11-28T11:21:16.070Z,3.03
2022-11-28T11:23:44.163Z,2.30
2022-11-28T11:26:27.498Z,1.60
2022-11-28T11:28:54.947Z,1.10
2022-11-28T11:31:28.200Z,2.65
2022-11-28T11:34:07.371Z,1.88
2022-11-28T11:36:36.724Z,2.83
2022-11-28T11:39:12.568Z,2.10
2022-11-28T11:41:43.497Z,3.70
2022-11-28T11:44:19.124Z,2.20
2022-11-28T11:46:52.562Z,1.98
2022-11-28T11:49:33.133Z,2.20
2022-11-28T11:52:06.500Z,2.10
2022-11-28T11:54:33.437Z,2.17
2022-11-28T11:57:30.638Z,1.92
2022-11-28T12:00:07.051Z,2.45
2022-11-28T12:02:41.013Z,3.58
2022-11-28T12:05:46.643Z,2.50
2022-11-28T12:08:51.147Z,2.95
2022-11-28T12:11:45.445Z,2.38
2022-11-28T12:14:29.590Z,3.05
2022-11-28T12:17:47.777Z,3.20
2022-11-28T12:21:04.587Z,2.15
2022-11-28T12:23:49.498Z,2.55
2022-11-28T12:26:25.493Z,2.72
2022-11-28T12:29:12.633Z,2.05
2022-11-28T12:32:19.481Z,2.55
2022-11-28T12:35:11.576Z,3.03
2022-11-28T12:38:11.868Z,1.67
2022-11-28T12:40:56.399Z,2.83
2022-11-28T12:44:07.345Z,2.70
2022-11-28T12:46:46.202Z,2.50
2022-11-28T12:49:27.790Z,2.00
2022-11-28T12:52:00.208Z,2.00
2022-11-28T12:54:57.172Z,2.53
2022-11-28T12:57:42.574Z,2.08
2022-11-28T13:00:19.926Z,1.58
2022-11-28T13:03:05.271Z,1.95
2022-11-28T13:05:47.759Z,1.70
2022-11-28T13:08:23.750Z,2.38
2022-11-28T13:11:08.936Z,2.20
2022-11-28T13:13:45.384Z,2.53
2022-11-28T13:16:38.845Z,2.22
2022-11-28T13:20:00.451Z,2.70
2022-11-28T13:22:57.791Z,2.13
2022-11-28T13:26:03.913Z,1.20
2022-11-28T13:28:44.674Z,1.00
2022-11-28T13:31:26.209Z,2.25
2022-11-28T13:33:57.465Z,1.88
2022-11-28T13:39:40.543Z,1.90
2022-11-28T13:43:06.406Z,1.80
2022-11-28T13:45:41.851Z,3.08
2022-11-28T13:51:33.795Z,2.00
2022-11-28T13:54:26.723Z,2.00
2022-11-28T13:57:22.175Z,3.95
2022-11-28T14:00:06.242Z,3.05
2022-11-28T14:02:48.697Z,2.38
2022-11-28T14:05:39.219Z,2.55
2022-11-28T14:08:07.364Z,2.38
2022-11-28T14:10:59.147Z,2.30
2022-11-28T14:13:44.770Z,1.70
2022-11-28T14:16:15.111Z,1.30
2022-11-28T14:19:15.688Z,1.48
2022-11-28T14:21:42.602Z,2.03
2022-11-28T14:24:24.790Z,2.17
2022-11-28T14:27:01.064Z,2.22
2022-11-28T14:29:39.931Z,2.08
2022-11-28T14:32:29.004Z,2.25
2022-11-28T14:34:54.173Z,2.80
2022-11-28T14:37:21.233Z,1.85
2022-11-28T14:39:49.370Z,1.55
2022-11-28T14:42:36.738Z,2.75
2022-11-28T14:45:24.019Z,2.05
2022-11-28T14:48:15.942Z,1.38
2022-11-28T14:50:46.221Z,1.25
2022-11-28T14:53:45.543Z,2.03
2022-11-28T14:56:14.903Z,1.85
2022-11-28T14:58:48.314Z,3.25
2022-11-28T15:01:44.018Z,2.78
2022-11-28T15:04:32.369Z,1.73
2022-11-28T15:07:00.597Z,2.80
2022-11-28T15:09:48.367Z,1.70
2022-11-28T15:12:30.138Z,2.03
2022-11-28T15:14:58.206Z,1.85
2022-11-28T15:17:34.124Z,2.10
2022-11-28T15:20:14.303Z,2.53
2022-11-28T15:22:42.663Z,2.40
2022-11-28T15:25:24.375Z,2.13
2022-11-28T15:27:51.765Z,2.63
2022-11-28T15:30:23.707Z,3.53
2022-11-28T15:32:58.448Z,2.13
2022-11-28T15:38:15.019Z,1.40
2022-11-28T15:40:50.260Z,1.70
2022-11-28T15:43:17.492Z,2.33
2022-11-28T15:45:50.134Z,2.00
2022-11-28T15:48:39.686Z,1.58
2022-11-28T15:51:07.780Z,3.15
2022-11-28T15:53:42.155Z,1.88
2022-11-28T15:56:14.760Z,2.15
2022-11-28T15:58:45.285Z,2.33
2022-11-28T16:01:20.539Z,2.20
2022-11-28T16:04:07.740Z,1.83
2022-11-28T16:06:36.912Z,3.13
2022-11-28T16:09:07.105Z,2.95
2022-11-28T16:11:35.709Z,2.38
2022-11-28T16:14:09.347Z,2.38
2022-11-28T16:16:38.143Z,2.78
2022-11-28T16:19:08.844Z,2.22
2022-11-28T16:21:45.076Z,2.13
2022-11-28T16:24:31.223Z,2.60
2022-11-28T16:27:04.834Z,1.35
2022-11-28T16:29:35.138Z,1.77
2022-11-28T16:32:21.591Z,3.00
2022-11-28T16:34:51.679Z,2.42
2022-11-28T16:37:30.273Z,2.38
2022-11-28T16:40:19.327Z,2.35
2022-11-28T16:42:56.346Z,2.70
2022-11-28T16:45:32.542Z,2.60
2022-11-28T16:48:14.523Z,2.28
2022-11-28T16:51:02.088Z,1.90
2022-11-28T16:53:48.603Z,2.53
2022-11-28T16:56:44.365Z,2.58
2022-11-28T16:59:18.284Z,3.00
2022-11-28T17:01:47.447Z,2.38
2022-11-28T17:04:28.637Z,4.63
2022-11-28T17:06:59.262Z,2.78
2022-11-28T17:09:26.053Z,2.67
2022-11-28T17:11:56.423Z,3.13
2022-11-28T17:14:23.490Z,2.65
2022-11-28T17:16:52.002Z,2.38
2022-11-28T17:19:18.857Z,3.33
2022-11-28T17:21:51.882Z,2.20
2022-11-28T17:24:22.082Z,1.95
2022-11-28T17:26:50.779Z,2.45
2022-11-28T17:29:17.614Z,2.80
2022-11-28T17:31:47.103Z,2.72
2022-11-28T17:34:19.793Z,1.77
2022-11-28T17:36:47.910Z,3.03
2022-11-28T17:39:15.796Z,3.38
2022-11-28T17:41:43.139Z,3.53
2022-11-28T17:44:31.262Z,2.95
2022-11-28T17:47:00.533Z,3.15
2022-11-28T17:49:27.690Z,2.17
2022-11-28T17:51:55.399Z,3.25
2022-11-28T17:54:24.035Z,1.85
2022-11-28T17:56:52.733Z,3.85
2022-11-28T17:59:21.400Z,4.28
2022-11-28T18:01:48.425Z,4.20
2022-11-28T18:04:15.453Z,3.42
2022-11-28T18:06:46.914Z,3.45
2022-11-28T18:09:14.723Z,3.13
2022-11-28T18:11:42.362Z,3.70
2022-11-28T18:14:09.789Z,2.88
2022-11-28T18:16:36.932Z,3.40
2022-11-28T18:19:04.403Z,3.20
2022-11-28T18:21:32.175Z,2.72
2022-11-28T18:23:58.891Z,4.00
2022-11-28T18:26:26.415Z,3.05
2022-11-28T18:28:54.039Z,3.67
2022-11-28T18:31:26.499Z,2.38
2022-11-28T18:34:00.255Z,2.80
2022-11-28T18:36:30.871Z,2.58
2022-11-28T18:39:00.016Z,2.97
2022-11-28T18:41:28.211Z,4.00
2022-11-28T18:44:02.184Z,3.05
2022-11-28T18:46:30.012Z,2.15
2022-11-28T18:48:57.256Z,3.10
2022-11-28T18:51:29.747Z,2.85
2022-11-28T18:53:57.851Z,4.85
2022-11-28T18:56:25.791Z,3.53
2022-11-28T18:58:54.104Z,3.50
2022-11-28T19:01:25.450Z,4.78
2022-11-28T19:03:54.508Z,3.72
2022-11-28T19:06:21.854Z,2.22
2022-11-28T19:08:52.527Z,1.85
2022-11-28T19:11:19.303Z,2.85
2022-11-28T19:13:48.796Z,3.03
2022-11-28T19:16:18.163Z,3.80
2022-11-28T19:18:45.602Z,2.97
2022-11-28T19:21:18.914Z,2.50
2022-11-28T19:23:47.058Z,4.65
2022-11-28T19:26:17.138Z,3.85
2022-11-28T19:28:43.747Z,3.75
2022-11-28T19:31:21.848Z,6.05
2022-11-28T19:34:04.001Z,3.75
2022-11-28T19:36:35.502Z,4.57
2022-11-28T19:39:02.397Z,3.40
2022-11-28T19:41:29.898Z,4.05
2022-11-28T19:43:57.305Z,3.22
2022-11-28T19:46:24.063Z,2.58
2022-11-28T19:48:51.808Z,3.03
2022-11-28T19:51:19.664Z,3.40
2022-11-28T19:53:46.853Z,2.70
2022-11-28T19:56:19.244Z,3.78
2022-11-28T19:58:46.309Z,4.20
2022-11-28T20:01:15.705Z,3.25
2022-11-28T20:03:43.371Z,3.38
2022-11-28T20:06:12.479Z,2.97
2022-11-28T20:08:40.035Z,2.88
2022-11-28T20:11:13.005Z,3.42
2022-11-28T20:13:41.083Z,3.80
2022-11-28T20:16:09.262Z,4.22
2022-11-28T20:18:40.667Z,2.97
2022-11-28T20:21:13.737Z,2.67
2022-11-28T20:23:55.044Z,3.13
2022-11-28T20:26:25.124Z,2.40
2022-11-28T20:28:52.171Z,3.75
2022-11-28T20:31:23.272Z,3.53
2022-11-28T20:33:51.695Z,3.40
2022-11-28T20:36:20.308Z,2.42
2022-11-28T20:38:47.976Z,3.03
2022-11-28T20:41:19.612Z,2.83
2022-11-28T20:43:47.136Z,3.63
2022-11-28T20:46:19.651Z,2.70
2022-11-28T20:48:47.045Z,3.22
2022-11-28T20:51:26.876Z,2.92
2022-11-28T20:53:54.705Z,3.35
2022-11-28T20:56:24.049Z,4.05
2022-11-28T20:58:51.203Z,3.80
2022-11-28T21:01:25.892Z,3.65
2022-11-28T21:03:53.360Z,2.85
2022-11-28T21:06:20.694Z,4.13
2022-11-28T21:08:47.797Z,3.05
2022-11-28T21:11:36.375Z,2.83
2022-11-28T21:14:05.257Z,3.70
2022-11-28T21:16:33.384Z,3.70
2022-11-28T21:19:06.018Z,3.65
2022-11-28T21:21:34.255Z,1.30
2022-11-28T21:24:07.920Z,3.72
2022-11-28T21:26:40.528Z,3.42
2022-11-28T21:29:09.192Z,2.45
2022-11-28T21:31:39.771Z,5.20
2022-11-28T21:34:08.847Z,3.42
2022-11-28T21:36:35.594Z,2.05
2022-11-28T21:39:02.600Z,3.38
2022-11-28T21:41:31.986Z,2.63
2022-11-28T21:43:59.692Z,4.50
2022-11-28T21:46:27.127Z,3.35
2022-11-28T21:48:54.129Z,3.13
2022-11-28T21:51:23.330Z,2.65
2022-11-28T21:53:50.503Z,3.17
2022-11-28T21:56:17.904Z,2.38
2022-11-28T21:58:44.569Z,3.53
2022-11-28T22:01:13.499Z,3.38
2022-11-28T22:03:41.624Z,2.97
2022-11-28T22:06:16.826Z,3.17
2022-11-28T22:08:43.924Z,3.63
2022-11-28T22:11:13.060Z,3.50
2022-11-28T22:13:42.281Z,4.07
2022-11-28T22:16:24.349Z,2.90
2022-11-28T22:18:53.927Z,3.38
2022-11-28T22:21:50.479Z,3.13
2022-11-28T22:24:08.627Z,3.55
2022-11-28T22:26:35.483Z,4.40
2022-11-28T22:29:03.940Z,4.80
2022-11-28T22:31:30.941Z,2.80
2022-11-28T22:33:57.779Z,3.53
2022-11-28T22:36:24.827Z,3.22
2022-11-28T22:38:55.603Z,4.57
2022-11-28T22:41:28.287Z,3.85
2022-11-28T22:44:02.784Z,3.75
2022-11-28T22:46:30.920Z,4.90
2022-11-28T22:49:02.510Z,4.50
2022-11-28T22:51:30.198Z,3.03
2022-11-28T22:53:59.287Z,2.42
2022-11-28T22:56:26.660Z,3.50
2022-11-28T22:58:53.533Z,3.30
2022-11-28T23:01:28.463Z,3.70
2022-11-28T23:03:55.831Z,3.15
2022-11-28T23:06:25.342Z,4.50
2022-11-28T23:08:53.253Z,5.03
2022-11-28T23:11:22.929Z,3.25
2022-11-28T23:13:50.697Z,3.00
2022-11-28T23:16:20.340Z,3.60
2022-11-28T23:18:49.237Z,3.67
2022-11-28T23:21:17.540Z,4.00
2022-11-28T23:23:45.891Z,3.97
2022-11-28T23:26:15.604Z,3.92
2022-11-28T23:28:42.571Z,3.65
2022-11-28T23:31:16.912Z,4.78
2022-11-28T23:33:43.688Z,2.75
2022-11-28T23:36:19.193Z,3.22
2022-11-28T23:38:47.283Z,2.95
2022-11-28T23:41:14.387Z,2.78
2022-11-28T23:43:41.764Z,3.75
2022-11-28T23:46:10.279Z,3.80
2022-11-28T23:48:37.920Z,3.92
2022-11-28T23:51:06.450Z,2.30
2022-11-28T23:53:34.085Z,2.88
2022-11-28T23:56:05.931Z,3.30
2022-11-28T23:58:34.157Z,4.10
